Time;durP1;ratioP1;P1;durP2;ratioP2;P2;SDS_P1;SDS_P2;PMS_P1;PMS_P2;Temp;Humidity;BMP_temperature;BMP_pressure;BME280_temperature;BME280_humidity;BME280_pressure;Samples;Min_cycle;Max_cycle;Signal;HPM_P1;HPM_P2
2022/01/01 00:00:41;;;;;;;1999.90;999.90;;;11.00;99.90;;;;;;5094216;28;20047;-64
2022/01/01 00:03:07;;;;;;;1999.90;999.90;;;10.90;99.90;;;;;;5101988;28;20052;-64
2022/01/01 00:05:32;;;;;;;1999.90;999.90;;;10.80;99.90;;;;;;5115375;28;20043;-63
2022/01/01 00:08:01;;;;;;;1999.90;999.90;;;10.90;99.90;;;;;;5095507;28;20124;-64
2022/01/01 00:10:27;;;;;;;1999.90;999.90;;;10.80;99.90;;;;;;5076557;28;20060;-65
2022/01/01 00:12:53;;;;;;;1999.90;999.90;;;10.80;99.90;;;;;;5095068;28;20056;-64
2022/01/01 00:15:19;;;;;;;1999.90;999.90;;;10.80;99.90;;;;;;5092170;28;20052;-65
2022/01/01 00:17:45;;;;;;;1999.90;999.90;;;10.90;99.90;;;;;;5094658;28;20044;-64
2022/01/01 00:20:13;;;;;;;1999.90;999.90;;;10.80;99.90;;;;;;5095000;28;20086;-63
2022/01/01 00:22:41;;;;;;;1999.90;999.90;;;10.70;99.90;;;;;;5093544;28;20048;-64
2022/01/01 00:25:08;;;;;;;1999.90;999.90;;;10.70;99.90;;;;;;5094086;28;20402;-63
2022/01/01 00:27:34;;;;;;;1999.90;999.90;;;10.80;99.90;;;;;;5076411;28;20084;-63
2022/01/01 00:30:00;;;;;;;1999.90;999.90;;;10.80;99.90;;;;;;5093530;28;20068;-63
2022/01/01 00:32:26;;;;;;;1999.90;999.90;;;10.80;99.90;;;;;;5075825;28;20048;-63
2022/01/01 00:34:51;;;;;;;1999.90;999.90;;;10.90;99.90;;;;;;5094532;28;20048;-63
2022/01/01 00:37:18;;;;;;;1999.90;999.90;;;10.90;99.90;;;;;;5093309;28;20067;-64
2022/01/01 00:39:44;;;;;;;1999.90;999.90;;;10.80;99.90;;;;;;5075998;28;20059;-64
2022/01/01 00:42:10;;;;;;;1999.90;999.90;;;10.80;99.90;;;;;;5076121;28;20044;-63
2022/01/01 00:44:36;;;;;;;1999.90;999.90;;;10.80;99.90;;;;;;5093731;28;20050;-64
2022/01/01 00:47:03;;;;;;;1999.90;999.90;;;10.70;99.90;;;;;;5094110;28;20051;-64
2022/01/01 00:49:29;;;;;;;1999.90;999.90;;;10.80;99.90;;;;;;5093438;28;20447;-64
2022/01/01 00:51:55;;;;;;;1999.90;999.90;;;10.80;99.90;;;;;;5093860;28;20044;-64
2022/01/01 00:54:20;;;;;;;1999.90;999.90;;;10.80;99.90;;;;;;5092739;28;20087;-63
2022/01/01 00:56:46;;;;;;;1999.90;999.90;;;10.80;99.90;;;;;;5093373;28;20054;-64
2022/01/01 00:59:12;;;;;;;1999.90;999.90;;;10.80;99.90;;;;;;5093410;28;20123;-64
2022/01/01 01:01:38;;;;;;;1999.90;999.90;;;10.80;99.90;;;;;;5093783;28;20054;-63
2022/01/01 01:04:04;;;;;;;1999.90;999.90;;;10.90;99.90;;;;;;5093431;28;20047;-64
2022/01/01 01:06:30;;;;;;;1999.90;999.90;;;10.80;99.90;;;;;;5093816;28;20135;-63
2022/01/01 01:08:59;;;;;;;1999.90;999.90;;;10.90;99.90;;;;;;5092921;28;20499;-64
2022/01/01 01:11:25;;;;;;;1999.90;999.90;;;10.80;99.90;;;;;;5092820;28;20097;-64
2022/01/01 01:13:59;;;;;;;1999.90;999.90;;;10.90;99.90;;;;;;5093644;28;20502;-63
2022/01/01 01:16:27;;;;;;;1999.90;999.90;;;10.90;99.90;;;;;;5093174;28;20059;-63
2022/01/01 01:18:54;;;;;;;1999.90;999.90;;;10.90;99.90;;;;;;5074221;28;20135;-64
2022/01/01 01:21:22;;;;;;;1999.90;999.90;;;10.80;99.90;;;;;;5093349;28;20040;-64
2022/01/01 01:23:49;;;;;;;1999.90;999.90;;;10.80;99.90;;;;;;5075030;28;20048;-63
2022/01/01 01:26:15;;;;;;;1999.90;999.90;;;10.80;99.90;;;;;;5092512;28;20039;-63
2022/01/01 01:28:47;;;;;;;1999.90;999.90;;;10.70;99.90;;;;;;5093535;28;20486;-63
2022/01/01 01:31:13;;;;;;;1999.90;999.90;;;10.70;99.90;;;;;;5093047;28;20048;-64
2022/01/01 01:33:38;;;;;;;1999.90;999.90;;;10.60;99.90;;;;;;5092622;28;20055;-63
2022/01/01 01:36:04;;;;;;;1999.90;999.90;;;10.60;99.90;;;;;;5092616;28;20047;-63
2022/01/01 01:38:36;;;;;;;1999.90;999.90;;;10.60;99.90;;;;;;5092709;28;20048;-63
2022/01/01 01:41:03;;;;;;;1999.90;999.90;;;10.50;99.90;;;;;;5093187;28;20032;-63
2022/01/01 01:43:28;;;;;;;1999.90;999.90;;;10.50;99.90;;;;;;5093120;28;20259;-63
2022/01/01 01:45:54;;;;;;;1999.90;999.90;;;10.30;99.90;;;;;;5092405;28;20549;-63
2022/01/01 01:48:20;;;;;;;1999.90;999.90;;;10.30;99.90;;;;;;5075178;28;20100;-63
2022/01/01 01:50:46;;;;;;;1999.90;999.90;;;10.20;99.90;;;;;;5093277;28;20529;-63
2022/01/01 01:53:12;;;;;;;1999.90;999.90;;;10.10;99.90;;;;;;5091933;28;20505;-63
2022/01/01 01:55:38;;;;;;;1999.90;999.90;;;10.00;99.90;;;;;;5093306;28;20066;-63
2022/01/01 01:58:04;;;;;;;1999.90;999.90;;;10.00;99.90;;;;;;5092832;28;20051;-63
2022/01/01 02:01:03;;;;;;;1999.90;999.90;;;9.90;99.90;;;;;;5091958;28;20126;-63
2022/01/01 02:03:27;;;;;;;1999.90;999.90;;;9.90;99.90;;;;;;5072506;28;20562;-63
2022/01/01 02:05:53;;;;;;;1999.90;999.90;;;9.90;99.90;;;;;;5072439;28;20128;-63
2022/01/01 02:08:19;;;;;;;1999.90;999.90;;;9.90;99.90;;;;;;5071929;28;20062;-63
2022/01/01 02:10:49;;;;;;;1999.90;999.90;;;9.90;99.90;;;;;;5055995;28;20135;-62
2022/01/01 02:13:22;;;;;;;1999.90;999.90;;;9.80;99.90;;;;;;5072873;28;20072;-63
2022/01/01 02:16:13;;;;;;;;;;;9.90;99.90;;;;;;5072150;28;20040;-63
2022/01/01 02:18:34;;;;;;;1999.90;999.90;;;9.90;99.90;;;;;;5073051;28;19920;-63
2022/01/01 02:20:59;;;;;;;1999.90;999.90;;;9.90;99.90;;;;;;5091885;28;20051;-63
2022/01/01 02:23:27;;;;;;;1999.90;999.90;;;9.90;99.90;;;;;;5093001;28;20079;-63
2022/01/01 02:25:56;;;;;;;1999.90;999.90;;;10.00;99.90;;;;;;5092719;28;20158;-63
2022/01/01 02:28:23;;;;;;;1999.90;999.90;;;10.00;99.90;;;;;;5091513;28;20118;-63
2022/01/01 02:30:50;;;;;;;1999.90;999.90;;;10.00;99.90;;;;;;5092856;28;20063;-64
2022/01/01 02:33:16;;;;;;;1999.90;999.90;;;10.00;99.90;;;;;;5092920;28;20040;-63
2022/01/01 02:35:42;;;;;;;1999.90;999.90;;;10.10;99.90;;;;;;5073616;28;20056;-63
2022/01/01 02:38:09;;;;;;;1999.90;999.90;;;10.10;99.90;;;;;;5092304;28;20047;-64
2022/01/01 02:40:36;;;;;;;1999.90;999.90;;;10.20;99.90;;;;;;5092335;28;20090;-64
2022/01/01 02:43:02;;;;;;;1999.90;999.90;;;10.20;99.90;;;;;;5092052;28;20040;-63
2022/01/01 02:45:29;;;;;;;1999.90;999.90;;;10.20;99.90;;;;;;5073803;28;20401;-63
2022/01/01 02:47:55;;;;;;;1999.90;999.90;;;10.30;99.90;;;;;;5092522;28;20044;-63
2022/01/01 02:50:20;;;;;;;1999.90;999.90;;;10.30;99.90;;;;;;5064904;28;20044;-63
2022/01/01 02:52:47;;;;;;;1999.90;999.90;;;10.30;99.90;;;;;;5101865;28;20032;-63
2022/01/01 02:55:13;;;;;;;1999.90;999.90;;;10.40;99.90;;;;;;5100993;28;20036;-64
2022/01/01 02:57:39;;;;;;;1999.90;999.90;;;10.30;99.90;;;;;;5100299;28;20055;-63
2022/01/01 03:00:05;;;;;;;1999.90;999.90;;;10.40;99.90;;;;;;5102488;28;20058;-63
2022/01/01 03:02:31;;;;;;;1999.90;999.90;;;10.30;99.90;;;;;;5102693;28;20047;-64
2022/01/01 03:04:57;;;;;;;1999.90;999.90;;;10.40;99.90;;;;;;5092833;28;20398;-63
2022/01/01 03:07:23;;;;;;;1999.90;999.90;;;10.40;99.90;;;;;;5092267;28;20044;-64
2022/01/01 03:09:48;;;;;;;1999.90;999.90;;;10.40;99.90;;;;;;5091967;28;20494;-63
2022/01/01 03:12:15;;;;;;;1999.90;999.90;;;10.50;99.90;;;;;;5091346;28;20044;-63
2022/01/01 03:14:41;;;;;;;1999.90;999.90;;;10.50;99.90;;;;;;5092034;28;20127;-63
2022/01/01 03:17:08;;;;;;;1999.90;999.90;;;10.50;99.90;;;;;;5091650;28;20087;-64
2022/01/01 03:19:35;;;;;;;1999.90;999.90;;;10.40;99.90;;;;;;5095519;28;20052;-63
2022/01/01 03:22:02;;;;;;;1999.90;999.90;;;10.50;99.90;;;;;;5095391;28;20047;-63
2022/01/01 03:24:28;;;;;;;1999.90;999.90;;;10.50;99.90;;;;;;5095237;28;20047;-64
2022/01/01 03:26:54;;;;;;;1999.90;999.90;;;10.60;99.90;;;;;;5096077;28;20158;-63
2022/01/01 03:29:20;;;;;;;1999.90;999.90;;;10.60;99.90;;;;;;5095205;28;20044;-63
2022/01/01 03:31:46;;;;;;;1999.90;999.90;;;10.50;99.90;;;;;;5094873;28;20504;-63
2022/01/01 03:34:12;;;;;;;1999.90;999.90;;;10.60;99.90;;;;;;5095875;28;20044;-63
2022/01/01 03:36:38;;;;;;;1999.90;999.90;;;10.60;99.90;;;;;;5095009;28;20529;-63
2022/01/01 03:39:04;;;;;;;1999.90;999.90;;;10.60;99.90;;;;;;5076086;28;20040;-64
2022/01/01 03:41:30;;;;;;;1999.90;999.90;;;10.60;99.90;;;;;;5095330;28;20517;-64
2022/01/01 03:43:56;;;;;;;1999.90;999.90;;;10.60;99.90;;;;;;5095241;28;20097;-64
2022/01/01 03:46:22;;;;;;;1999.90;999.90;;;10.70;99.90;;;;;;5094866;28;20043;-64
2022/01/01 03:48:47;;;;;;;1999.90;999.90;;;10.70;99.90;;;;;;5077449;28;20036;-64
2022/01/01 03:51:13;;;;;;;1999.90;999.90;;;10.70;99.90;;;;;;5098078;28;20043;-63
2022/01/01 03:53:39;;;;;;;1999.90;999.90;;;10.60;99.90;;;;;;5094721;28;20054;-64
2022/01/01 03:56:07;;;;;;;1999.90;999.90;;;10.70;99.90;;;;;;5095029;28;20071;-63
2022/01/01 03:58:33;;;;;;;1999.90;999.90;;;10.60;99.90;;;;;;5094679;28;20477;-63
2022/01/01 04:00:59;;;;;;;1999.90;999.90;;;10.70;99.90;;;;;;5094393;28;20051;-63
2022/01/01 04:03:25;;;;;;;1999.90;999.90;;;10.70;99.90;;;;;;5095276;28;20127;-63
2022/01/01 04:05:50;;;;;;;1999.90;999.90;;;10.60;99.90;;;;;;5094449;28;20051;-63
2022/01/01 04:08:16;;;;;;;1999.90;999.90;;;10.60;99.90;;;;;;5094355;28;20109;-63
2022/01/01 04:10:42;;;;;;;1999.90;999.90;;;10.60;99.90;;;;;;5087544;28;20056;-62
2022/01/01 04:13:10;;;;;;;1999.90;999.90;;;10.60;99.90;;;;;;5073394;28;20050;-63
2022/01/01 04:15:37;;;;;;;1999.90;999.90;;;10.70;99.90;;;;;;5091343;28;20079;-63
2022/01/01 04:18:09;;;;;;;1999.90;999.90;;;10.60;99.90;;;;;;5094796;28;20101;-63
2022/01/01 04:20:35;;;;;;;1999.90;999.90;;;10.60;99.90;;;;;;5093752;28;20044;-63
2022/01/01 04:23:01;;;;;;;1999.90;999.90;;;10.60;99.90;;;;;;5076088;28;20055;-63
2022/01/01 04:25:28;;;;;;;1999.90;999.90;;;10.60;99.90;;;;;;5094894;28;20044;-63
2022/01/01 04:27:55;;;;;;;1999.90;999.90;;;10.60;99.90;;;;;;5093616;28;20040;-63
2022/01/01 04:30:21;;;;;;;1999.90;999.90;;;10.60;99.90;;;;;;5094747;28;20083;-63
2022/01/01 04:32:48;;;;;;;1999.90;999.90;;;10.60;99.90;;;;;;5094418;28;20453;-63
2022/01/01 04:35:15;;;;;;;1999.90;999.90;;;10.50;99.90;;;;;;5093230;28;20105;-63
2022/01/01 04:37:41;;;;;;;1999.90;999.90;;;10.50;99.90;;;;;;5094232;28;20474;-63
2022/01/01 04:40:08;;;;;;;1999.90;999.90;;;10.50;99.90;;;;;;5093892;28;20044;-62
2022/01/01 04:42:34;;;;;;;1999.90;999.90;;;10.50;99.90;;;;;;5093254;28;20537;-63
2022/01/01 04:45:00;;;;;;;1999.90;999.90;;;10.50;99.90;;;;;;5094334;28;20094;-63
2022/01/01 04:47:26;;;;;;;1999.90;999.90;;;10.30;99.90;;;;;;5094159;28;20040;-63
2022/01/01 04:49:52;;;;;;;1999.90;999.90;;;10.40;99.90;;;;;;5092604;28;20123;-63
2022/01/01 04:52:18;;;;;;;1999.90;999.90;;;10.30;99.90;;;;;;5094357;28;20085;-63
2022/01/01 04:54:44;;;;;;;1999.90;999.90;;;10.30;99.90;;;;;;5094159;28;20048;-63
2022/01/01 04:57:12;;;;;;;1999.90;999.90;;;10.40;99.90;;;;;;5092954;28;20044;-63
2022/01/01 04:59:39;;;;;;;1999.90;999.90;;;10.30;99.90;;;;;;5093745;28;20059;-63
2022/01/01 05:02:05;;;;;;;1999.90;999.90;;;10.30;99.90;;;;;;5093846;28;20058;-63
2022/01/01 05:04:31;;;;;;;1999.90;999.90;;;10.30;99.90;;;;;;5092896;28;20063;-63
2022/01/01 05:06:57;;;;;;;1999.90;999.90;;;10.30;99.90;;;;;;5093822;28;20036;-63
2022/01/01 05:09:23;;;;;;;1999.90;999.90;;;10.30;99.90;;;;;;5093843;28;20083;-63
2022/01/01 05:11:49;;;;;;;1999.90;999.90;;;10.30;99.90;;;;;;5092418;28;20414;-64
2022/01/01 05:14:16;;;;;;;1999.90;999.90;;;10.30;99.90;;;;;;5094030;28;20063;-63
2022/01/01 05:16:43;;;;;;;1999.90;999.90;;;10.30;99.90;;;;;;5091757;28;20099;-63
2022/01/01 05:19:09;;;;;;;1999.90;999.90;;;10.20;99.90;;;;;;5073189;28;20529;-63
2022/01/01 05:21:36;;;;;;;1999.90;999.90;;;10.30;99.90;;;;;;5073519;28;20041;-62
2022/01/01 05:24:05;;;;;;;1999.90;999.90;;;10.30;99.90;;;;;;5073626;28;20044;-63
2022/01/01 05:26:31;;;;;;;1999.90;999.90;;;10.40;99.90;;;;;;5091758;28;20075;-62
2022/01/01 05:28:57;;;;;;;1999.90;999.90;;;10.40;99.90;;;;;;5093365;28;20501;-63
2022/01/01 05:31:23;;;;;;;1999.90;999.90;;;10.40;99.90;;;;;;5092384;28;20046;-62
2022/01/01 05:33:49;;;;;;;1999.90;999.90;;;10.40;99.90;;;;;;5093023;28;20051;-63
2022/01/01 05:36:16;;;;;;;1999.90;999.90;;;10.30;99.90;;;;;;5093427;28;20077;-63
2022/01/01 05:38:44;;;;;;;1999.90;999.90;;;10.40;99.90;;;;;;5074260;28;20063;-63
2022/01/01 05:41:10;;;;;;;1999.90;999.90;;;10.40;99.90;;;;;;5092659;28;20047;-62
2022/01/01 05:43:36;;;;;;;1999.90;999.90;;;10.40;99.90;;;;;;5093448;28;20048;-63
2022/01/01 05:46:02;;;;;;;1999.90;999.90;;;10.40;99.90;;;;;;5092556;28;20048;-63
2022/01/01 05:48:28;;;;;;;1999.90;999.90;;;10.40;99.90;;;;;;5092993;28;20059;-63
2022/01/01 05:50:54;;;;;;;1999.90;999.90;;;10.40;99.90;;;;;;5093034;28;20044;-63
2022/01/01 05:53:19;;;;;;;1999.90;999.90;;;10.40;99.90;;;;;;5092551;28;20081;-63
2022/01/01 05:55:46;;;;;;;1999.90;999.90;;;10.40;99.90;;;;;;5092764;28;20501;-64
2022/01/01 05:58:12;;;;;;;1999.90;999.90;;;10.50;99.90;;;;;;5093104;28;20036;-63
2022/01/01 06:00:38;;;;;;;1999.90;999.90;;;10.50;99.90;;;;;;5091905;28;20044;-63
2022/01/01 06:03:04;;;;;;;1999.90;999.90;;;10.40;99.90;;;;;;5092810;28;20044;-63
2022/01/01 06:05:30;;;;;;;1999.90;999.90;;;10.50;99.90;;;;;;5074836;28;20039;-63
2022/01/01 06:07:57;;;;;;;1999.90;999.90;;;10.50;99.90;;;;;;5092175;28;20382;-63
2022/01/01 06:10:25;;;;;;;1999.90;999.90;;;10.60;99.90;;;;;;5092026;28;20109;-63
2022/01/01 06:12:51;;;;;;;1999.90;999.90;;;10.60;99.90;;;;;;5092114;28;20047;-63
2022/01/01 06:15:17;;;;;;;1999.90;999.90;;;10.50;99.90;;;;;;5092961;28;20050;-63
2022/01/01 06:17:43;;;;;;;1999.90;999.90;;;10.60;99.90;;;;;;5092369;28;20086;-63
2022/01/01 06:20:10;;;;;;;1999.90;999.90;;;10.60;99.90;;;;;;5092195;28;20858;-63
2022/01/01 06:22:36;;;;;;;1999.90;999.90;;;10.60;99.90;;;;;;5074701;28;20397;-64
2022/01/01 06:25:02;;;;;;;1999.90;999.90;;;10.60;99.90;;;;;;5092835;28;20052;-63
2022/01/01 06:27:28;;;;;;;1999.90;999.90;;;10.60;99.90;;;;;;5073466;28;20055;-64
2022/01/01 06:29:54;;;;;;;1999.90;999.90;;;10.60;99.90;;;;;;5092906;28;20393;-64
2022/01/01 06:32:19;;;;;;;1999.90;999.90;;;10.60;99.90;;;;;;5092886;28;20124;-64
2022/01/01 06:34:45;;;;;;;1999.90;999.90;;;10.70;99.90;;;;;;5073517;28;20123;-64
2022/01/01 06:37:11;;;;;;;1999.90;999.90;;;10.70;99.90;;;;;;5092261;28;20043;-63
2022/01/01 06:39:37;;;;;;;1999.90;999.90;;;10.80;99.90;;;;;;5092436;28;20044;-64
2022/01/01 06:42:03;;;;;;;1999.90;999.90;;;10.70;99.90;;;;;;5073410;28;20096;-63
2022/01/01 06:44:29;;;;;;;1999.90;999.90;;;10.70;99.90;;;;;;5074059;28;20052;-63
2022/01/01 06:46:54;;;;;;;1999.90;999.90;;;10.70;99.90;;;;;;5092823;28;20052;-63
2022/01/01 06:49:20;;;;;;;1999.90;999.90;;;10.70;99.90;;;;;;5091737;28;20044;-64
2022/01/01 06:51:47;;;;;;;1999.90;999.90;;;10.70;99.90;;;;;;5092690;28;20036;-63
2022/01/01 06:54:12;;;;;;;1999.90;999.90;;;10.60;99.90;;;;;;5095166;28;20074;-63
2022/01/01 06:56:38;;;;;;;1999.90;999.90;;;10.60;99.90;;;;;;5095080;28;20051;-63
2022/01/01 06:59:04;;;;;;;1999.90;999.90;;;10.50;99.90;;;;;;5096343;28;20044;-64
2022/01/01 07:01:29;;;;;;;1999.90;999.90;;;10.50;99.90;;;;;;5096368;28;20486;-63
2022/01/01 07:03:56;;;;;;;1999.90;999.90;;;10.50;99.90;;;;;;5094949;28;20084;-63
2022/01/01 07:06:22;;;;;;;1999.90;999.90;;;10.40;99.90;;;;;;5096403;28;20044;-63
2022/01/01 07:08:47;;;;;;;1999.90;999.90;;;10.50;99.90;;;;;;5096162;28;20067;-63
2022/01/01 07:11:13;;;;;;;1999.90;999.90;;;10.40;99.90;;;;;;5094462;28;20059;-63
2022/01/01 07:13:39;;;;;;;1999.90;999.90;;;10.40;99.90;;;;;;5096218;28;20051;-62
2022/01/01 07:16:06;;;;;;;1999.90;999.90;;;10.40;99.90;;;;;;5095937;28;20455;-63
2022/01/01 07:18:31;;;;;;;1999.90;999.90;;;10.40;99.90;;;;;;5095400;28;20099;-63
2022/01/01 07:20:57;;;;;;;1999.90;999.90;;;10.40;99.90;;;;;;5095803;28;20080;-62
2022/01/01 07:23:23;;;;;;;1999.90;999.90;;;10.40;99.90;;;;;;5094986;28;20428;-63
2022/01/01 07:25:49;;;;;;;1999.90;999.90;;;10.40;99.90;;;;;;5095629;28;20048;-63
2022/01/01 07:28:16;;;;;;;1999.90;999.90;;;10.30;99.90;;;;;;5077442;28;20044;-63
2022/01/01 07:30:45;;;;;;;1999.90;999.90;;;10.40;99.90;;;;;;5095088;28;20091;-63
2022/01/01 07:33:13;;;;;;;1999.90;999.90;;;10.40;99.90;;;;;;5095469;28;20054;-63
2022/01/01 07:35:39;;;;;;;1999.90;999.90;;;10.40;99.90;;;;;;5077790;28;20059;-63
2022/01/01 07:38:05;;;;;;;1999.90;999.90;;;10.40;99.90;;;;;;5094494;28;20040;-63
2022/01/01 07:40:32;;;;;;;1999.90;999.90;;;10.40;99.90;;;;;;5095150;28;20048;-63
2022/01/01 07:42:58;;;;;;;1999.90;999.90;;;10.40;99.90;;;;;;5095689;28;20052;-63
2022/01/01 07:45:24;;;;;;;1999.90;999.90;;;10.40;99.90;;;;;;5094847;28;20398;-63
2022/01/01 07:47:50;;;;;;;1999.90;999.90;;;10.40;99.90;;;;;;5094798;28;20044;-63
2022/01/01 07:50:15;;;;;;;1999.90;999.90;;;10.40;99.90;;;;;;5095405;28;20052;-63
2022/01/01 07:52:42;;;;;;;1999.90;999.90;;;10.40;99.90;;;;;;5094533;28;20052;-62
2022/01/01 07:55:08;;;;;;;1999.90;999.90;;;10.30;99.90;;;;;;5094733;28;20051;-63
2022/01/01 07:57:34;;;;;;;1999.90;999.90;;;10.30;99.90;;;;;;5095369;28;20117;-63
2022/01/01 08:00:00;;;;;;;1999.90;999.90;;;10.40;99.90;;;;;;5094590;28;20473;-63
2022/01/01 08:02:26;;;;;;;1999.90;999.90;;;10.40;99.90;;;;;;5095077;28;20394;-63
2022/01/01 08:04:52;;;;;;;1999.90;999.90;;;10.40;99.90;;;;;;5094469;28;20054;-63
2022/01/01 08:07:17;;;;;;;1999.90;999.90;;;10.40;99.90;;;;;;5076266;28;20113;-64
2022/01/01 08:09:43;;;;;;;1999.90;999.90;;;10.40;99.90;;;;;;5094327;28;20036;-63
2022/01/01 08:12:09;;;;;;;1999.90;999.90;;;10.40;99.90;;;;;;5094824;28;20059;-63
2022/01/01 08:14:35;;;;;;;1999.90;999.90;;;10.50;99.90;;;;;;5094056;28;20032;-63
2022/01/01 08:17:04;;;;;;;1999.90;999.90;;;10.50;99.90;;;;;;5094536;28;20401;-63
2022/01/01 08:19:29;;;;;;;1999.90;999.90;;;10.50;99.90;;;;;;5093982;28;20052;-63
2022/01/01 08:21:56;;;;;;;1999.90;999.90;;;10.60;99.90;;;;;;5094421;28;20411;-63
2022/01/01 08:24:22;;;;;;;1999.90;999.90;;;10.60;99.90;;;;;;5094444;28;20506;-63
2022/01/01 08:26:49;;;;;;;1999.90;999.90;;;10.60;99.90;;;;;;5094371;28;20052;-63
2022/01/01 08:29:15;;;;;;;1999.90;999.90;;;10.70;99.90;;;;;;5094711;28;20133;-63
2022/01/01 08:31:41;;;;;;;1999.90;999.90;;;10.70;99.90;;;;;;5093916;28;20141;-63
2022/01/01 08:34:07;;;;;;;1999.90;999.90;;;10.70;99.90;;;;;;5093855;28;20097;-63
2022/01/01 08:36:33;;;;;;;1999.90;999.90;;;10.60;99.90;;;;;;5094591;28;20039;-63
2022/01/01 08:38:59;;;;;;;1999.90;999.90;;;10.70;99.90;;;;;;5093364;28;20506;-63
2022/01/01 08:41:25;;;;;;;1999.90;999.90;;;10.60;99.90;;;;;;5093811;28;20495;-63
2022/01/01 08:43:52;;;;;;;1999.90;999.90;;;10.70;99.90;;;;;;5094439;28;20135;-63
2022/01/01 08:46:18;;;;;;;1999.90;999.90;;;10.60;99.90;;;;;;5094211;28;20098;-63
2022/01/01 08:48:44;;;;;;;1999.90;999.90;;;10.60;99.90;;;;;;5082505;28;20044;-62
2022/01/01 08:51:16;;;;;;;1999.90;999.90;;;10.60;99.90;;;;;;5081123;28;20040;-63
2022/01/01 08:53:42;;;;;;;1999.90;999.90;;;10.60;99.90;;;;;;5093708;28;20131;-62
2022/01/01 08:56:08;;;;;;;1999.90;999.90;;;10.60;99.90;;;;;;5093053;28;20486;-62
2022/01/01 08:58:34;;;;;;;1999.90;999.90;;;10.70;99.90;;;;;;5093142;28;20052;-63
2022/01/01 09:01:01;;;;;;;1999.90;999.90;;;10.70;99.90;;;;;;5096113;28;20540;-62
2022/01/01 09:03:27;;;;;;;1999.90;999.90;;;10.70;99.90;;;;;;5101866;28;20040;-63
2022/01/01 09:05:53;;;;;;;1999.90;999.90;;;10.80;99.90;;;;;;5097781;28;20116;-63
2022/01/01 09:08:19;;;;;;;1999.90;999.90;;;10.80;99.90;;;;;;5095939;28;20436;-63
2022/01/01 09:10:44;;;;;;;1999.90;999.90;;;10.80;99.90;;;;;;5103288;28;20060;-63
2022/01/01 09:13:10;;;;;;;1999.90;999.90;;;10.80;99.90;;;;;;5102222;28;20044;-63
2022/01/01 09:15:36;;;;;;;1999.90;999.90;;;10.90;99.90;;;;;;5100744;28;20529;-63
2022/01/01 09:18:02;;;;;;;1999.90;999.90;;;10.90;99.90;;;;;;5098315;28;20048;-62
2022/01/01 09:20:27;;;;;;;1999.90;999.90;;;10.90;99.90;;;;;;5113157;28;20054;-63
2022/01/01 09:22:53;;;;;;;1999.90;999.90;;;10.90;99.90;;;;;;5111485;28;20382;-63
2022/01/01 09:25:19;;;;;;;1999.90;999.90;;;10.90;99.90;;;;;;5101635;28;20054;-63
2022/01/01 09:27:45;;;;;;;1999.90;999.90;;;10.90;99.90;;;;;;5093104;28;20399;-63
2022/01/01 09:30:11;;;;;;;1999.90;999.90;;;10.90;99.90;;;;;;5092429;28;20491;-63
2022/01/01 09:32:38;;;;;;;1999.90;999.90;;;11.00;99.90;;;;;;5086895;28;20040;-63
2022/01/01 09:35:04;;;;;;;1999.90;999.90;;;11.10;99.90;;;;;;5092653;28;20544;-63
2022/01/01 09:37:32;;;;;;;1999.90;999.90;;;11.00;99.90;;;;;;5092003;28;20482;-63
2022/01/01 09:39:59;;;;;;;1999.90;999.90;;;11.10;99.90;;;;;;5092913;28;20036;-63
2022/01/01 09:42:25;;;;;;;1999.90;999.90;;;11.20;99.90;;;;;;5080138;28;20044;-63
2022/01/01 09:44:52;;;;;;;1999.90;999.90;;;11.20;99.90;;;;;;5084942;28;20397;-63
2022/01/01 09:47:19;;;;;;;1999.90;999.90;;;11.30;99.90;;;;;;5093183;28;20048;-63
2022/01/01 09:49:45;;;;;;;1999.90;999.90;;;11.40;99.90;;;;;;5092499;28;20059;-63
2022/01/01 09:52:14;;;;;;;1999.90;999.90;;;11.40;99.90;;;;;;5091893;28;20036;-63
2022/01/01 09:54:41;;;;;;;1999.90;999.90;;;11.50;99.90;;;;;;5092893;28;20048;-63
2022/01/01 09:57:10;;;;;;;1999.90;999.90;;;11.50;99.90;;;;;;5084526;28;20053;-63
2022/01/01 09:59:37;;;;;;;1999.90;999.90;;;11.50;99.90;;;;;;5080131;28;20109;-64
2022/01/01 10:02:03;;;;;;;1999.90;999.90;;;11.60;99.90;;;;;;5091776;28;20044;-64
2022/01/01 10:04:42;;;;;;;1999.90;999.90;;;11.70;99.90;;;;;;5102335;28;20043;-63
2022/01/01 10:07:08;;;;;;;1999.90;999.90;;;11.70;99.90;;;;;;5096860;28;20044;-63
2022/01/01 10:09:35;;;;;;;1999.90;999.90;;;11.70;99.90;;;;;;5091665;28;20044;-63
2022/01/01 10:12:01;;;;;;;1999.90;999.90;;;11.70;99.90;;;;;;5079448;28;20051;-63
2022/01/01 10:14:36;;;;;;;1999.90;999.90;;;11.70;99.90;;;;;;5079157;28;20071;-63
2022/01/01 10:17:12;;;;;;;1999.90;999.90;;;11.80;99.90;;;;;;5077938;28;20097;-63
2022/01/01 10:19:39;;;;;;;1999.90;999.90;;;11.70;99.90;;;;;;5092938;28;20119;-63
2022/01/01 10:22:06;;;;;;;1999.90;999.90;;;11.70;99.90;;;;;;5084930;28;20057;-63
2022/01/01 10:27:42;;;;;;;1999.90;999.90;;;11.80;99.90;;;;;;5084816;28;20732;-63
2022/01/01 10:30:03;;;;;;;1999.90;999.90;;;11.90;99.90;;;;;;5106539;28;20055;-63
2022/01/01 10:32:28;;;;;;;1999.90;999.90;;;11.80;99.90;;;;;;5103940;28;20035;-63
2022/01/01 10:34:54;;;;;;;1999.90;999.90;;;11.90;99.90;;;;;;5100148;28;20105;-63
2022/01/01 10:37:28;;;;;;;1999.90;999.90;;;11.80;99.90;;;;;;5084617;28;20036;-63
2022/01/01 10:39:54;;;;;;;1999.90;999.90;;;11.90;99.90;;;;;;5091949;28;20469;-63
2022/01/01 10:42:21;;;;;;;1999.90;999.90;;;11.90;99.90;;;;;;5092911;28;20071;-63
2022/01/01 10:44:49;;;;;;;1999.90;999.90;;;11.90;99.90;;;;;;5095017;28;20044;-63
2022/01/01 10:47:20;;;;;;;1999.90;999.90;;;12.00;99.90;;;;;;5105399;28;20062;-63
2022/01/01 10:52:18;;;;;;;1999.90;999.90;;;12.00;99.90;;;;;;5082318;28;20036;-63
2022/01/01 10:54:52;;;;;;;1999.90;999.90;;;12.00;99.90;;;;;;5098880;28;20048;-63
2022/01/01 10:57:28;;;;;;;1999.90;999.90;;;12.00;99.90;;;;;;5106785;28;20511;-63
2022/01/01 11:00:08;;;;;;;1999.90;999.90;;;12.00;99.90;;;;;;5098634;28;20359;-63
2022/01/01 11:02:35;;;;;;;1999.90;999.90;;;12.00;99.90;;;;;;5095703;28;20490;-63
2022/01/01 11:05:03;;;;;;;1999.90;999.90;;;12.00;99.90;;;;;;5106079;28;20051;-63
2022/01/01 11:07:30;;;;;;;1999.90;999.90;;;12.00;99.90;;;;;;5088528;28;20300;-63
2022/01/01 11:09:57;;;;;;;1999.90;999.90;;;11.90;99.90;;;;;;5084776;28;20066;-63
2022/01/01 11:12:27;;;;;;;1999.90;999.90;;;12.00;99.90;;;;;;5105519;28;20456;-63
2022/01/01 11:14:54;;;;;;;1999.90;999.90;;;12.00;99.90;;;;;;5106171;28;20050;-63
2022/01/01 11:17:21;;;;;;;1999.90;999.90;;;12.00;99.90;;;;;;5104573;28;20043;-63
2022/01/01 11:19:48;;;;;;;1999.90;999.90;;;12.00;99.90;;;;;;5069322;28;20105;-63
2022/01/01 11:22:15;;;;;;;1999.90;999.90;;;12.00;99.90;;;;;;5101717;28;20380;-63
2022/01/01 11:24:42;;;;;;;1999.90;999.90;;;11.90;99.90;;;;;;5081632;28;20516;-63
2022/01/01 11:27:09;;;;;;;1999.90;999.90;;;11.90;99.90;;;;;;5103723;28;20058;-63
2022/01/01 11:29:35;;;;;;;1999.90;999.90;;;11.90;99.90;;;;;;5104759;28;20489;-63
2022/01/01 11:32:04;;;;;;;1999.90;999.90;;;11.90;99.90;;;;;;5085699;28;20047;-63
2022/01/01 11:34:31;;;;;;;1999.90;999.90;;;11.90;99.90;;;;;;5103014;28;20134;-63
2022/01/01 11:36:57;;;;;;;1999.90;999.90;;;12.00;99.90;;;;;;5102212;28;20046;-63
2022/01/01 11:39:25;;;;;;;1999.90;999.90;;;11.90;99.90;;;;;;5083484;28;20048;-63
2022/01/01 11:41:51;;;;;;;1999.90;999.90;;;11.90;99.90;;;;;;5104505;28;20055;-63
2022/01/01 11:44:29;;;;;;;1999.90;999.90;;;12.00;99.90;;;;;;5105162;28;20440;-63
2022/01/01 11:47:06;;;;;;;1999.90;999.90;;;12.00;99.90;;;;;;5101745;28;20031;-64
2022/01/01 11:49:33;;;;;;;1999.90;999.90;;;12.10;99.90;;;;;;5105925;28;20573;-64
2022/01/01 11:52:00;;;;;;;1999.90;999.90;;;12.10;99.90;;;;;;5095907;28;20036;-63
2022/01/01 11:54:33;;;;;;;1999.90;999.90;;;12.10;99.90;;;;;;5101440;28;20044;-63
2022/01/01 11:57:00;;;;;;;;;;;12.10;99.90;;;;;;5105720;28;20053;-64
2022/01/01 11:59:38;;;;;;;1999.90;999.90;;;12.10;99.90;;;;;;5100878;28;20430;-64
2022/01/01 12:02:17;;;;;;;1999.90;999.90;;;12.10;99.90;;;;;;5103725;28;20047;-63
2022/01/01 12:04:46;;;;;;;1999.90;999.90;;;12.20;99.90;;;;;;5096244;28;20051;-64